Falls City, Idaho
Current Conditions -  °F | °C
As of 10:53 AM on Tuesday 21 Oct 2014 (Local Time) from KJER Reporting Station
Clear Clear  
Wind Chill: 43°   Ceiling: Unl
Heat Index: 48°   Visibility: 10mi
Dew Point: 39°   Wind: 12mph
Humidity: 71%   Direction: 180°S
Pressure: 30.03"   Gusts: NA
Location:  42.7238°N, 114.338°W
Report Text: KJER 211653Z AUTO 18010KT 10SM CLR 09/04 A3003 RMK AO2 SLP150 T00890039
Loading
Personal Weather Stations






























Interactive Weather Map
Tropical Storm Tracking
New forecast layout! Learn more

10-Day Weather Forecast

Advertisements
Track Severe Weather on mobile